Time;durP1;ratioP1;P1;durP2;ratioP2;P2;SDS_P1;SDS_P2;PMS_P1;PMS_P2;Temp;Humidity;BMP_temperature;BMP_pressure;BME280_temperature;BME280_humidity;BME280_pressure;Samples;Min_cycle;Max_cycle;Signal;HPM_P1;HPM_P2
2024/02/14 00:02:25;;;;;;;10.07;2.63;;;;;;;;;;4896407;29;20229;-77
2024/02/14 00:04:53;;;;;;;8.67;2.63;;;;;;;;;;4896067;29;20201;-78
2024/02/14 00:07:20;;;;;;;6.80;3.10;;;;;;;;;;4896416;29;20233;-76
2024/02/14 00:09:47;;;;;;;8.43;2.80;;;;;;;;;;4896215;29;20233;-77
2024/02/14 00:12:14;;;;;;;7.20;2.43;;;;;;;;;;4896410;29;20224;-77
2024/02/14 00:14:42;;;;;;;7.50;2.53;;;;;;;;;;4896003;29;20663;-77
2024/02/14 00:17:12;;;;;;;5.47;2.27;;;;;;;;;;4895979;29;20551;-76
2024/02/14 00:19:39;;;;;;;9.73;2.53;;;;;;;;;;4895802;29;20265;-77
2024/02/14 00:22:06;;;;;;;5.73;2.20;;;;;;;;;;4900418;29;20205;-76
2024/02/14 00:24:35;;;;;;;5.83;2.10;;;;;;;;;;4910323;29;20231;-77
2024/02/14 00:27:03;;;;;;;4.43;1.83;;;;;;;;;;4921231;29;20268;-77
2024/02/14 00:29:30;;;;;;;5.87;2.27;;;;;;;;;;4921316;29;20215;-76
2024/02/14 00:31:57;;;;;;;6.23;2.40;;;;;;;;;;4921180;29;20287;-77
2024/02/14 00:34:26;;;;;;;7.70;2.40;;;;;;;;;;4921368;29;20644;-76
2024/02/14 00:36:53;;;;;;;5.27;2.17;;;;;;;;;;4921334;29;20196;-77
2024/02/14 00:39:20;;;;;;;4.87;2.20;;;;;;;;;;4921102;29;20735;-77
2024/02/14 00:41:48;;;;;;;6.83;2.00;;;;;;;;;;4921145;29;20196;-76
2024/02/14 00:44:16;;;;;;;6.83;1.83;;;;;;;;;;4921229;29;20220;-76
2024/02/14 00:46:44;;;;;;;6.07;1.80;;;;;;;;;;4921288;29;20661;-76
2024/02/14 00:49:11;;;;;;;5.40;1.70;;;;;;;;;;4920957;29;20693;-76
2024/02/14 00:51:39;;;;;;;6.70;1.90;;;;;;;;;;4921168;29;20291;-76
2024/02/14 00:54:07;;;;;;;8.03;1.80;;;;;;;;;;4921018;29;20722;-77
2024/02/14 00:56:34;;;;;;;8.20;1.90;;;;;;;;;;4906586;29;20239;-77
2024/02/14 00:59:01;;;;;;;7.03;1.87;;;;;;;;;;4902155;29;20323;-76
2024/02/14 01:01:28;;;;;;;6.43;2.00;;;;;;;;;;4902605;29;20288;-76
2024/02/14 01:03:55;;;;;;;5.83;1.70;;;;;;;;;;4901662;29;20670;-76
2024/02/14 01:06:24;;;;;;;8.33;1.90;;;;;;;;;;4901948;29;20201;-76
2024/02/14 01:08:53;;;;;;;4.80;1.70;;;;;;;;;;4901984;29;20264;-76
2024/02/14 01:11:20;;;;;;;6.60;1.80;;;;;;;;;;4902229;29;20209;-75
2024/02/14 01:13:47;;;;;;;5.17;1.57;;;;;;;;;;4902324;29;20259;-76
2024/02/14 01:16:14;;;;;;;8.90;2.00;;;;;;;;;;4902034;29;20232;-76
2024/02/14 01:18:41;;;;;;;7.23;2.00;;;;;;;;;;4901111;29;20327;-76
2024/02/14 01:21:08;;;;;;;9.93;2.20;;;;;;;;;;4901866;29;20587;-76
2024/02/14 01:23:36;;;;;;;9.30;2.07;;;;;;;;;;4901698;29;20229;-76
2024/02/14 01:26:05;;;;;;;10.93;1.90;;;;;;;;;;4901617;29;20289;-76
2024/02/14 01:28:32;;;;;;;7.73;1.80;;;;;;;;;;4902193;29;20232;-76
2024/02/14 01:31:00;;;;;;;9.77;1.90;;;;;;;;;;4901456;29;20236;-77
2024/02/14 01:33:27;;;;;;;11.40;2.20;;;;;;;;;;4899268;29;20197;-75
2024/02/14 01:35:55;;;;;;;8.20;2.10;;;;;;;;;;4898904;29;20288;-77
2024/02/14 01:38:22;;;;;;;11.07;2.20;;;;;;;;;;4898665;29;20315;-75
2024/02/14 01:40:49;;;;;;;9.03;1.80;;;;;;;;;;4899377;29;20201;-76
2024/02/14 01:43:19;;;;;;;8.53;1.93;;;;;;;;;;4898784;29;20248;-76
2024/02/14 01:45:46;;;;;;;11.00;2.40;;;;;;;;;;4898042;29;20201;-77
2024/02/14 01:48:18;;;;;;;10.47;2.30;;;;;;;;;;4898462;29;20201;-77
2024/02/14 01:50:45;;;;;;;9.83;1.97;;;;;;;;;;4898671;29;20228;-77
2024/02/14 01:53:13;;;;;;;7.70;2.03;;;;;;;;;;4898528;29;20292;-76
2024/02/14 01:55:40;;;;;;;10.33;1.70;;;;;;;;;;4898782;29;20201;-76
2024/02/14 01:58:07;;;;;;;12.87;2.63;;;;;;;;;;4898286;29;20300;-76
2024/02/14 02:00:36;;;;;;;12.60;2.40;;;;;;;;;;4898424;29;20628;-77
2024/02/14 02:03:03;;;;;;;8.97;2.20;;;;;;;;;;4897830;29;20398;-75
2024/02/14 02:05:31;;;;;;;11.73;1.97;;;;;;;;;;4898372;29;20209;-76
2024/02/14 02:07:58;;;;;;;10.50;2.07;;;;;;;;;;4898145;29;20204;-75
2024/02/14 02:10:27;;;;;;;10.10;2.60;;;;;;;;;;4897876;29;20244;-76
2024/02/14 02:13:00;;;;;;;7.37;2.07;;;;;;;;;;4898930;29;20201;-76
2024/02/14 02:15:28;;;;;;;12.53;2.57;;;;;;;;;;4898261;29;20284;-77
2024/02/14 02:17:57;;;;;;;12.17;2.80;;;;;;;;;;4897943;29;20228;-77
2024/02/14 02:20:24;;;;;;;12.83;2.10;;;;;;;;;;4898457;29;20239;-76
2024/02/14 02:22:52;;;;;;;11.03;2.40;;;;;;;;;;4898489;29;20225;-77
2024/02/14 02:25:23;;;;;;;15.10;2.40;;;;;;;;;;4911568;29;20335;-77
2024/02/14 02:27:50;;;;;;;15.03;2.63;;;;;;;;;;4916584;29;20207;-74
2024/02/14 02:30:17;;;;;;;12.43;2.80;;;;;;;;;;4916459;29;20737;-77
2024/02/14 02:32:44;;;;;;;11.83;2.47;;;;;;;;;;4916995;29;20291;-75
2024/02/14 02:35:11;;;;;;;15.57;3.97;;;;;;;;;;4916722;29;20207;-76
2024/02/14 02:37:39;;;;;;;15.03;2.97;;;;;;;;;;4916703;29;20208;-75
2024/02/14 02:40:10;;;;;;;11.63;2.63;;;;;;;;;;4916505;29;20330;-75
2024/02/14 02:42:38;;;;;;;13.77;2.67;;;;;;;;;;4916796;29;20210;-76
2024/02/14 02:45:05;;;;;;;13.17;2.93;;;;;;;;;;4914977;29;20299;-76
2024/02/14 02:47:33;;;;;;;16.87;3.07;;;;;;;;;;4916486;29;20208;-76
2024/02/14 02:50:01;;;;;;;18.33;3.43;;;;;;;;;;4915844;29;20236;-76
2024/02/14 02:52:28;;;;;;;15.73;3.30;;;;;;;;;;4916541;29;20256;-77
2024/02/14 02:54:55;;;;;;;14.90;3.00;;;;;;;;;;4916580;29;20200;-76
2024/02/14 02:57:26;;;;;;;14.07;3.00;;;;;;;;;;4916369;29;20641;-76
2024/02/14 02:59:54;;;;;;;19.77;3.37;;;;;;;;;;4915914;29;20228;-77
2024/02/14 03:02:22;;;;;;;15.53;3.50;;;;;;;;;;4916001;29;20208;-76
2024/02/14 03:04:50;;;;;;;20.43;3.60;;;;;;;;;;4916179;29;20213;-76
2024/02/14 03:07:18;;;;;;;16.33;3.30;;;;;;;;;;4916284;29;20284;-76
2024/02/14 03:09:46;;;;;;;18.93;3.47;;;;;;;;;;4915989;29;20223;-75
2024/02/14 03:12:16;;;;;;;21.80;3.67;;;;;;;;;;4916265;29;20207;-76
2024/02/14 03:14:45;;;;;;;17.10;3.23;;;;;;;;;;4915743;29;20227;-76
2024/02/14 03:17:12;;;;;;;21.80;3.80;;;;;;;;;;4916163;29;20615;-76
2024/02/14 03:19:39;;;;;;;22.20;4.37;;;;;;;;;;4915844;29;20232;-76
2024/02/14 03:22:08;;;;;;;20.03;3.83;;;;;;;;;;4903631;29;20201;-77
2024/02/14 03:24:36;;;;;;;19.97;4.57;;;;;;;;;;4897023;29;20264;-77
2024/02/14 03:27:05;;;;;;;16.67;3.33;;;;;;;;;;4896422;29;20203;-75
2024/02/14 03:29:34;;;;;;;19.77;4.10;;;;;;;;;;4897365;29;20205;-76
2024/02/14 03:32:04;;;;;;;19.50;3.83;;;;;;;;;;4896572;29;20197;-75
2024/02/14 03:34:33;;;;;;;23.67;3.57;;;;;;;;;;4896389;29;20674;-77
2024/02/14 03:37:02;;;;;;;21.57;3.73;;;;;;;;;;4896672;29;20714;-75
2024/02/14 03:39:29;;;;;;;19.83;3.77;;;;;;;;;;4896660;29;20280;-76
2024/02/14 03:41:56;;;;;;;17.27;3.03;;;;;;;;;;4895950;29;20900;-77
2024/02/14 03:44:23;;;;;;;21.03;4.13;;;;;;;;;;4896522;29;20240;-76
2024/02/14 03:46:51;;;;;;;18.90;3.03;;;;;;;;;;4896396;29;20616;-75
2024/02/14 03:49:19;;;;;;;23.60;4.07;;;;;;;;;;4896855;29;20651;-75
2024/02/14 03:51:48;;;;;;;25.87;4.07;;;;;;;;;;4896687;29;20213;-76
2024/02/14 03:54:16;;;;;;;24.23;4.27;;;;;;;;;;4896320;29;20227;-76
2024/02/14 03:56:43;;;;;;;21.40;3.93;;;;;;;;;;4895832;29;20228;-76
2024/02/14 03:59:10;;;;;;;24.53;4.00;;;;;;;;;;4892947;29;20271;-75
2024/02/14 04:01:37;;;;;;;23.73;3.50;;;;;;;;;;4885743;29;20347;-76
2024/02/14 04:04:04;;;;;;;24.67;3.50;;;;;;;;;;4877612;29;20204;-75
2024/02/14 04:06:33;;;;;;;24.10;3.77;;;;;;;;;;4877700;29;20289;-76
2024/02/14 04:09:00;;;;;;;21.07;4.03;;;;;;;;;;4877841;29;20225;-76
2024/02/14 04:11:27;;;;;;;19.90;3.90;;;;;;;;;;4877110;29;20297;-75
2024/02/14 04:13:54;;;;;;;25.13;4.00;;;;;;;;;;4877427;29;20229;-76
2024/02/14 04:16:22;;;;;;;22.53;4.23;;;;;;;;;;4877655;29;20238;-76
2024/02/14 04:18:49;;;;;;;20.73;4.03;;;;;;;;;;4877559;29;20202;-78
2024/02/14 04:21:16;;;;;;;24.20;4.20;;;;;;;;;;4884521;29;20293;-75
2024/02/14 04:23:45;;;;;;;15.47;3.50;;;;;;;;;;4895899;29;20228;-74
2024/02/14 04:26:19;;;;;;;19.20;4.07;;;;;;;;;;4895587;29;20295;-76
2024/02/14 04:28:46;;;;;;;16.37;3.30;;;;;;;;;;4896296;29;20231;-77
2024/02/14 04:31:13;;;;;;;21.47;3.00;;;;;;;;;;4895992;29;20675;-76
2024/02/14 04:33:41;;;;;;;13.40;2.97;;;;;;;;;;4896543;29;20757;-75
2024/02/14 04:36:08;;;;;;;16.40;3.33;;;;;;;;;;4895698;29;20236;-77
2024/02/14 04:38:35;;;;;;;16.87;3.47;;;;;;;;;;4895873;29;20766;-77
2024/02/14 04:41:04;;;;;;;16.87;3.43;;;;;;;;;;4895763;29;20797;-76
2024/02/14 04:43:31;;;;;;;17.77;3.47;;;;;;;;;;4896107;29;20735;-76
2024/02/14 04:45:58;;;;;;;16.70;3.13;;;;;;;;;;4895314;29;20211;-76
2024/02/14 04:48:26;;;;;;;12.30;3.40;;;;;;;;;;4896062;29;20292;-77
2024/02/14 04:50:53;;;;;;;13.17;3.03;;;;;;;;;;4896294;29;20205;-76
2024/02/14 04:53:20;;;;;;;15.70;3.17;;;;;;;;;;4895507;29;20292;-77
2024/02/14 04:55:48;;;;;;;14.43;3.17;;;;;;;;;;4895223;29;20675;-77
2024/02/14 04:58:16;;;;;;;14.90;3.67;;;;;;;;;;4896172;29;20206;-76
2024/02/14 05:00:43;;;;;;;16.33;3.13;;;;;;;;;;4895572;29;20736;-76
2024/02/14 05:03:10;;;;;;;14.67;3.67;;;;;;;;;;4896317;29;20201;-76
2024/02/14 05:05:38;;;;;;;20.00;3.37;;;;;;;;;;4896031;29;20284;-76
2024/02/14 05:08:05;;;;;;;14.13;3.57;;;;;;;;;;4896277;29;20321;-76
2024/02/14 05:10:32;;;;;;;14.50;3.30;;;;;;;;;;4898899;29;20244;-77
2024/02/14 05:13:01;;;;;;;18.70;3.93;;;;;;;;;;4899650;29;20240;-75
2024/02/14 05:15:29;;;;;;;17.57;3.20;;;;;;;;;;4898977;29;20201;-77
2024/02/14 05:17:57;;;;;;;16.23;3.80;;;;;;;;;;4899348;29;20248;-77
2024/02/14 05:20:24;;;;;;;15.10;3.40;;;;;;;;;;4899626;29;20269;-76
2024/02/14 05:22:51;;;;;;;19.63;3.60;;;;;;;;;;4899207;29;20221;-77
2024/02/14 05:25:20;;;;;;;16.13;3.87;;;;;;;;;;4912186;29;20236;-76
2024/02/14 05:27:47;;;;;;;15.53;3.47;;;;;;;;;;4917980;29;20299;-76
2024/02/14 05:30:14;;;;;;;16.50;3.33;;;;;;;;;;4918182;29;20204;-78
2024/02/14 05:32:43;;;;;;;12.67;3.73;;;;;;;;;;4918067;29;20307;-76
2024/02/14 05:35:10;;;;;;;14.40;3.47;;;;;;;;;;4917788;29;20211;-76
2024/02/14 05:37:37;;;;;;;13.40;3.30;;;;;;;;;;4917436;29;20220;-77
2024/02/14 05:40:07;;;;;;;18.00;3.50;;;;;;;;;;4917414;29;20606;-77
2024/02/14 05:42:34;;;;;;;15.73;3.47;;;;;;;;;;4918080;29;20204;-77
2024/02/14 05:45:03;;;;;;;18.73;3.23;;;;;;;;;;4917464;29;20205;-76
2024/02/14 05:47:31;;;;;;;15.43;3.80;;;;;;;;;;4917186;29;20295;-75
2024/02/14 05:49:59;;;;;;;11.90;3.00;;;;;;;;;;4917395;29;20205;-75
2024/02/14 05:52:26;;;;;;;11.07;2.97;;;;;;;;;;4917226;29;20760;-76
2024/02/14 05:54:54;;;;;;;14.07;3.33;;;;;;;;;;4917682;29;20228;-76
2024/02/14 05:57:21;;;;;;;20.57;3.40;;;;;;;;;;4910083;29;20697;-76
2024/02/14 05:59:48;;;;;;;9.20;2.63;;;;;;;;;;4898306;29;20280;-76
2024/02/14 06:02:15;;;;;;;13.30;2.80;;;;;;;;;;4898692;29;20225;-75
2024/02/14 06:04:42;;;;;;;16.30;3.07;;;;;;;;;;4898391;29;20284;-77
2024/02/14 06:07:12;;;;;;;14.80;3.00;;;;;;;;;;4897539;29;20205;-78
2024/02/14 06:09:39;;;;;;;14.87;2.70;;;;;;;;;;4898658;29;20204;-77
2024/02/14 06:12:06;;;;;;;14.07;2.97;;;;;;;;;;4898379;29;20288;-77
2024/02/14 06:14:35;;;;;;;11.97;2.80;;;;;;;;;;4898466;29;20293;-75
2024/02/14 06:17:02;;;;;;;13.73;2.87;;;;;;;;;;4897937;29;20201;-76
2024/02/14 06:19:30;;;;;;;13.83;3.43;;;;;;;;;;4898062;29;20291;-76
2024/02/14 06:21:59;;;;;;;9.37;2.57;;;;;;;;;;4897849;29;20667;-78
2024/02/14 06:24:27;;;;;;;12.50;2.80;;;;;;;;;;4897977;29;20229;-77
2024/02/14 06:26:54;;;;;;;14.87;2.70;;;;;;;;;;4898135;29;20293;-77
2024/02/14 06:29:21;;;;;;;16.63;2.73;;;;;;;;;;4898210;29;20292;-77
2024/02/14 06:31:49;;;;;;;18.57;3.20;;;;;;;;;;4898097;29;20295;-78
2024/02/14 06:34:16;;;;;;;15.70;3.20;;;;;;;;;;4897809;29;20672;-77
2024/02/14 06:36:43;;;;;;;14.07;2.90;;;;;;;;;;4896231;29;20284;-75
2024/02/14 06:39:10;;;;;;;15.17;3.33;;;;;;;;;;4897439;29;20201;-76
2024/02/14 06:41:40;;;;;;;13.30;3.17;;;;;;;;;;4896949;29;20225;-76
2024/02/14 06:44:07;;;;;;;15.50;2.87;;;;;;;;;;4911441;29;20207;-78
2024/02/14 06:46:35;;;;;;;17.07;2.90;;;;;;;;;;4898973;29;20221;-77
2024/02/14 06:49:02;;;;;;;14.67;2.83;;;;;;;;;;4897223;29;20597;-77
2024/02/14 06:51:30;;;;;;;19.97;3.47;;;;;;;;;;4897420;29;20207;-74
2024/02/14 06:53:58;;;;;;;18.13;3.37;;;;;;;;;;4895558;29;20297;-75
2024/02/14 06:56:25;;;;;;;14.00;2.77;;;;;;;;;;4871354;29;20213;-74
2024/02/14 06:58:59;;;;;;;18.67;2.90;;;;;;;;;;4874722;29;20209;-76
2024/02/14 07:01:27;;;;;;;15.93;2.80;;;;;;;;;;4885451;29;20237;-75
2024/02/14 07:03:54;;;;;;;17.27;3.00;;;;;;;;;;4887083;29;20288;-76
2024/02/14 07:06:22;;;;;;;18.97;3.27;;;;;;;;;;4883061;29;20304;-75
2024/02/14 07:08:49;;;;;;;21.63;2.90;;;;;;;;;;4896271;29;20265;-76
2024/02/14 07:11:17;;;;;;;16.87;2.97;;;;;;;;;;4905647;29;20208;-75
2024/02/14 07:13:44;;;;;;;17.70;3.40;;;;;;;;;;4899008;29;20659;-74
2024/02/14 07:16:13;;;;;;;19.53;4.20;;;;;;;;;;4915348;29;20200;-75
2024/02/14 07:18:41;;;;;;;16.37;3.10;;;;;;;;;;4915654;29;20692;-74
2024/02/14 07:21:08;;;;;;;13.27;3.57;;;;;;;;;;4915661;29;20259;-74
2024/02/14 07:23:35;;;;;;;19.50;3.47;;;;;;;;;;4915710;29;20216;-75
2024/02/14 07:26:02;;;;;;;17.03;3.07;;;;;;;;;;4915541;29;20204;-75
2024/02/14 07:28:29;;;;;;;23.43;3.17;;;;;;;;;;4915414;29;20211;-74
2024/02/14 07:30:56;;;;;;;18.13;3.07;;;;;;;;;;4910575;29;20197;-76
2024/02/14 07:33:25;;;;;;;18.17;3.00;;;;;;;;;;4896405;29;20209;-77
2024/02/14 07:35:52;;;;;;;13.50;3.00;;;;;;;;;;4895999;29;20683;-76
2024/02/14 07:38:19;;;;;;;17.27;3.70;;;;;;;;;;4896284;29;20738;-77
2024/02/14 07:40:46;;;;;;;18.63;3.13;;;;;;;;;;4895777;29;20814;-76
2024/02/14 07:43:14;;;;;;;17.23;2.90;;;;;;;;;;4895614;29;20701;-75
2024/02/14 07:45:41;;;;;;;17.77;3.57;;;;;;;;;;4913239;29;20867;-77
2024/02/14 07:48:08;;;;;;;11.93;2.83;;;;;;;;;;4914728;29;20211;-76
2024/02/14 07:50:37;;;;;;;14.80;3.13;;;;;;;;;;4914829;29;20205;-78
2024/02/14 07:53:06;;;;;;;14.33;3.37;;;;;;;;;;4914283;29;20736;-76
2024/02/14 07:55:33;;;;;;;20.73;3.10;;;;;;;;;;4900994;29;20215;-76
2024/02/14 07:58:00;;;;;;;16.63;2.80;;;;;;;;;;4895955;29;20692;-76
2024/02/14 08:00:27;;;;;;;19.27;3.57;;;;;;;;;;4862947;29;20233;-75
2024/02/14 08:02:55;;;;;;;18.00;3.97;;;;;;;;;;4891409;29;20280;-74
2024/02/14 08:05:22;;;;;;;20.73;4.17;;;;;;;;;;4890952;29;20240;-75
2024/02/14 08:07:51;;;;;;;16.50;3.77;;;;;;;;;;4891711;29;20643;-75
2024/02/14 08:10:19;;;;;;;17.27;3.73;;;;;;;;;;4889676;29;20213;-75
2024/02/14 08:12:47;;;;;;;19.00;3.40;;;;;;;;;;4891744;29;20577;-74
2024/02/14 08:15:14;;;;;;;21.53;2.90;;;;;;;;;;4891150;29;20221;-75
2024/02/14 08:17:42;;;;;;;21.97;3.73;;;;;;;;;;4892480;29;20237;-76
2024/02/14 08:20:10;;;;;;;19.40;4.10;;;;;;;;;;4890740;29;20211;-76
2024/02/14 08:22:37;;;;;;;20.60;3.67;;;;;;;;;;4892319;29;20304;-76
2024/02/14 08:25:07;;;;;;;21.80;3.97;;;;;;;;;;4888369;29;20334;-74
2024/02/14 08:27:34;;;;;;;18.47;3.80;;;;;;;;;;4891737;29;20682;-74
2024/02/14 08:30:01;;;;;;;16.77;3.10;;;;;;;;;;4890401;29;20739;-75
2024/02/14 08:32:28;;;;;;;21.80;3.70;;;;;;;;;;4891111;29;20321;-75
2024/02/14 08:34:56;;;;;;;16.07;3.20;;;;;;;;;;4891722;29;20303;-76
2024/02/14 08:37:24;;;;;;;17.73;3.90;;;;;;;;;;4895051;29;20296;-75
2024/02/14 08:39:51;;;;;;;15.23;3.37;;;;;;;;;;4892644;29;20584;-76
2024/02/14 08:42:20;;;;;;;14.90;3.53;;;;;;;;;;4891173;29;20668;-75
2024/02/14 08:44:48;;;;;;;14.73;3.03;;;;;;;;;;4898414;29;20328;-75
2024/02/14 08:47:15;;;;;;;20.63;3.30;;;;;;;;;;4894061;29;20208;-75
2024/02/14 08:49:43;;;;;;;20.47;3.67;;;;;;;;;;4894975;29;20276;-76
2024/02/14 08:52:10;;;;;;;15.67;3.30;;;;;;;;;;4880598;29;20296;-77
2024/02/14 08:54:37;;;;;;;18.40;3.10;;;;;;;;;;4883113;29;20257;-75
2024/02/14 08:57:05;;;;;;;17.87;3.17;;;;;;;;;;4894331;29;20209;-75
2024/02/14 08:59:33;;;;;;;17.80;3.72;;;;;;;;;;4874655;29;20638;-76
2024/02/14 09:02:01;;;;;;;13.38;2.67;;;;;;;;;;4888150;29;20240;-75
2024/02/14 09:04:28;;;;;;;22.90;3.78;;;;;;;;;;4894114;29;20253;-75
2024/02/14 09:06:56;;;;;;;20.63;3.00;;;;;;;;;;4891982;29;20638;-74
2024/02/14 09:09:23;;;;;;;14.95;3.33;;;;;;;;;;4895406;29;20237;-76
2024/02/14 09:11:50;;;;;;;17.25;3.55;;;;;;;;;;4894484;29;20647;-76
2024/02/14 09:14:17;;;;;;;17.55;3.28;;;;;;;;;;4895004;29;20209;-78
2024/02/14 09:16:46;;;;;;;18.92;3.72;;;;;;;;;;4893917;29;20296;-77
2024/02/14 09:19:13;;;;;;;19.35;3.85;;;;;;;;;;4893871;29;20296;-76
2024/02/14 09:21:40;;;;;;;13.02;3.40;;;;;;;;;;4893518;29;20328;-77
2024/02/14 09:24:08;;;;;;;20.53;4.33;;;;;;;;;;4894936;29;20241;-76
2024/02/14 09:26:35;;;;;;;15.82;3.25;;;;;;;;;;4896894;29;20213;-75
2024/02/14 09:29:02;;;;;;;19.13;4.43;;;;;;;;;;4894888;29;20213;-75
2024/02/14 09:31:29;;;;;;;12.15;2.92;;;;;;;;;;4893875;29;20213;-76
2024/02/14 09:33:58;;;;;;;17.88;3.30;;;;;;;;;;4893883;29;20244;-76
2024/02/14 09:36:25;;;;;;;14.80;2.42;;;;;;;;;;4894326;29;20209;-77
2024/02/14 09:38:53;;;;;;;12.77;2.30;;;;;;;;;;4894242;29;20233;-77
2024/02/14 09:41:24;;;;;;;11.55;2.50;;;;;;;;;;4893270;29;20229;-76
2024/02/14 09:43:51;;;;;;;17.35;2.90;;;;;;;;;;4894606;29;20280;-76
2024/02/14 09:46:19;;;;;;;13.20;2.65;;;;;;;;;;4893610;29;20236;-76
2024/02/14 09:48:47;;;;;;;11.82;2.60;;;;;;;;;;4894514;29;20205;-76
2024/02/14 09:51:16;;;;;;;11.65;2.40;;;;;;;;;;4894101;29;20213;-76
2024/02/14 09:53:43;;;;;;;14.88;3.08;;;;;;;;;;4889558;29;20213;-76
2024/02/14 09:56:12;;;;;;;10.98;2.63;;;;;;;;;;4888900;29;20742;-77
2024/02/14 09:58:41;;;;;;;10.48;2.10;;;;;;;;;;4887304;29;20304;-75
2024/02/14 10:01:09;;;;;;;12.00;2.90;;;;;;;;;;4879317;29;20330;-76
2024/02/14 10:03:36;;;;;;;13.37;2.90;;;;;;;;;;4878948;29;20290;-77
2024/02/14 10:06:04;;;;;;;19.50;2.92;;;;;;;;;;4865074;29;20237;-77
2024/02/14 10:08:32;;;;;;;13.82;2.90;;;;;;;;;;4887936;29;20204;-77
2024/02/14 10:11:00;;;;;;;18.17;2.83;;;;;;;;;;4892797;29;20264;-77
2024/02/14 10:13:29;;;;;;;13.43;2.90;;;;;;;;;;4893139;29;20230;-77
2024/02/14 10:15:57;;;;;;;15.30;2.55;;;;;;;;;;4892778;29;20339;-76
2024/02/14 10:18:24;;;;;;;14.35;2.65;;;;;;;;;;4891473;29;20305;-77
2024/02/14 10:20:55;;;;;;;13.57;2.67;;;;;;;;;;4892707;29;20246;-76
2024/02/14 10:23:22;;;;;;;10.80;2.28;;;;;;;;;;4892719;29;20300;-75
2024/02/14 10:25:52;;;;;;;16.65;2.50;;;;;;;;;;4892764;29;20741;-77
2024/02/14 10:28:21;;;;;;;9.63;2.00;;;;;;;;;;4892346;29;20211;-76
2024/02/14 10:30:49;;;;;;;13.38;2.47;;;;;;;;;;4892971;29;20296;-75
2024/02/14 10:33:16;;;;;;;10.75;2.47;;;;;;;;;;4892204;29;20209;-75
2024/02/14 10:35:44;;;;;;;11.00;2.65;;;;;;;;;;4891714;29;20293;-76
2024/02/14 10:38:12;;;;;;;14.77;4.03;;;;;;;;;;4892152;29;20841;-76
2024/02/14 10:40:40;;;;;;;11.18;2.70;;;;;;;;;;4891076;29;20372;-77
2024/02/14 10:43:10;;;;;;;14.55;3.50;;;;;;;;;;4892734;29;20328;-76
2024/02/14 10:45:37;;;;;;;14.60;3.40;;;;;;;;;;4894770;29;20266;-76
2024/02/14 10:48:06;;;;;;;12.32;2.88;;;;;;;;;;4890669;29;20212;-76
2024/02/14 10:50:35;;;;;;;11.73;2.42;;;;;;;;;;4892324;29;20221;-76
2024/02/14 10:53:06;;;;;;;13.73;2.60;;;;;;;;;;4892168;29;20201;-75
2024/02/14 10:55:34;;;;;;;12.75;2.83;;;;;;;;;;4892296;29;20475;-77
2024/02/14 10:58:01;;;;;;;15.13;3.20;;;;;;;;;;4889227;29;20209;-76
2024/02/14 11:00:32;;;;;;;14.95;3.38;;;;;;;;;;4890489;29;20227;-75
2024/02/14 11:03:00;;;;;;;11.25;2.97;;;;;;;;;;4891691;29;20292;-78
2024/02/14 11:05:27;;;;;;;10.95;2.50;;;;;;;;;;4882865;29;20209;-76
2024/02/14 11:07:55;;;;;;;11.40;2.75;;;;;;;;;;4857395;29;20347;-76
2024/02/14 11:10:23;;;;;;;9.88;2.15;;;;;;;;;;4849182;29;20217;-77
2024/02/14 11:12:51;;;;;;;10.15;2.42;;;;;;;;;;4889712;29;20209;-75
2024/02/14 11:15:19;;;;;;;15.10;2.92;;;;;;;;;;4892321;29;20212;-76
2024/02/14 11:17:48;;;;;;;9.98;2.33;;;;;;;;;;4889319;29;20205;-77
2024/02/14 11:20:19;;;;;;;12.98;2.05;;;;;;;;;;4891156;29;20215;-76
2024/02/14 11:22:56;;;;;;;11.05;2.10;;;;;;;;;;4890936;29;20233;-77
2024/02/14 11:25:25;;;;;;;14.77;3.08;;;;;;;;;;4891871;29;20632;-82
2024/02/14 11:27:52;;;;;;;14.32;3.53;;;;;;;;;;4889466;29;20231;-82
2024/02/14 11:30:32;;;;;;;14.10;2.95;;;;;;;;;;4893002;29;20209;-78
2024/02/14 11:33:17;;;;;;;8.10;2.45;;;;;;;;;;4892465;29;20217;-79
2024/02/14 11:35:45;;;;;;;11.45;3.58;;;;;;;;;;4891936;29;20295;-78
2024/02/14 11:38:12;;;;;;;10.90;3.00;;;;;;;;;;4892242;29;20699;-79
2024/02/14 11:40:40;;;;;;;13.73;3.42;;;;;;;;;;4887024;29;20274;-77
2024/02/14 11:43:12;;;;;;;11.57;3.50;;;;;;;;;;4892674;29;20237;-78
2024/02/14 11:45:41;;;;;;;11.30;3.15;;;;;;;;;;4892219;29;20194;-79
2024/02/14 11:48:09;;;;;;;14.15;3.00;;;;;;;;;;4892343;29;20201;-80
2024/02/14 11:50:37;;;;;;;12.35;2.92;;;;;;;;;;4892338;29;20296;-79
2024/02/14 11:53:06;;;;;;;13.60;2.72;;;;;;;;;;4892766;29;20209;-80
2024/02/14 11:55:34;;;;;;;10.82;2.58;;;;;;;;;;4892492;29;20734;-80
2024/02/14 11:58:01;;;;;;;11.18;2.50;;;;;;;;;;4891804;29;20220;-79
2024/02/14 12:00:28;;;;;;;12.45;3.10;;;;;;;;;;4892381;29;20244;-79
2024/02/14 12:02:56;;;;;;;10.80;2.30;;;;;;;;;;4891881;29;20679;-79
2024/02/14 12:05:24;;;;;;;11.85;2.95;;;;;;;;;;4893506;29;20205;-80
2024/02/14 12:07:53;;;;;;;14.43;2.80;;;;;;;;;;4897818;29;20197;-79
2024/02/14 12:10:22;;;;;;;10.75;2.75;;;;;;;;;;4891597;29;20232;-81
2024/02/14 12:12:50;;;;;;;11.88;2.90;;;;;;;;;;4888659;29;20202;-79
2024/02/14 12:15:18;;;;;;;8.90;3.00;;;;;;;;;;4891229;29;20201;-79
2024/02/14 12:17:49;;;;;;;9.15;2.65;;;;;;;;;;4891696;29;20268;-79
2024/02/14 12:20:17;;;;;;;11.35;3.13;;;;;;;;;;4891990;29;20240;-80
2024/02/14 12:22:44;;;;;;;11.38;2.63;;;;;;;;;;4871749;29;20251;-80
2024/02/14 12:25:13;;;;;;;8.95;2.63;;;;;;;;;;4891035;29;20228;-80
2024/02/14 12:27:41;;;;;;;9.50;2.30;;;;;;;;;;4892808;29;20203;-80
2024/02/14 12:30:10;;;;;;;9.00;2.47;;;;;;;;;;4891540;29;20240;-79
2024/02/14 12:32:37;;;;;;;8.15;2.20;;;;;;;;;;4892096;29;20690;-81
2024/02/14 12:35:04;;;;;;;11.82;2.55;;;;;;;;;;4892551;29;20292;-80
2024/02/14 12:37:31;;;;;;;12.93;2.63;;;;;;;;;;4894390;29;20233;-82
2024/02/14 12:39:59;;;;;;;10.75;2.47;;;;;;;;;;4890246;29;20277;-79
2024/02/14 12:42:27;;;;;;;10.02;2.58;;;;;;;;;;4889942;29;20264;-80
2024/02/14 12:44:56;;;;;;;9.13;2.20;;;;;;;;;;4890927;29;20231;-80
2024/02/14 12:47:26;;;;;;;14.45;2.35;;;;;;;;;;4889064;29;20300;-80
2024/02/14 12:49:53;;;;;;;9.65;2.22;;;;;;;;;;4878070;29;20213;-79
2024/02/14 12:52:21;;;;;;;8.65;2.22;;;;;;;;;;4883435;29;22188;-79
2024/02/14 12:54:48;;;;;;;13.93;2.60;;;;;;;;;;4902443;29;20209;-79
2024/02/14 12:57:15;;;;;;;12.90;2.47;;;;;;;;;;4892148;29;20209;-78
2024/02/14 12:59:45;;;;;;;8.73;2.10;;;;;;;;;;4893340;29;20210;-77
2024/02/14 13:02:12;;;;;;;11.50;2.40;;;;;;;;;;4912024;29;20224;-78
2024/02/14 13:04:40;;;;;;;7.38;2.42;;;;;;;;;;4904835;29;20204;-78
2024/02/14 13:07:08;;;;;;;11.05;2.40;;;;;;;;;;4894854;29;20201;-77
2024/02/14 13:09:36;;;;;;;7.50;2.08;;;;;;;;;;4907836;29;20196;-77
2024/02/14 13:12:05;;;;;;;8.30;2.33;;;;;;;;;;4876438;29;20216;-78
2024/02/14 13:14:33;;;;;;;8.30;2.72;;;;;;;;;;4890954;29;20277;-79
2024/02/14 13:17:01;;;;;;;14.32;2.45;;;;;;;;;;4901170;29;20864;-78
2024/02/14 13:19:28;;;;;;;10.65;2.20;;;;;;;;;;4899925;29;20300;-78
2024/02/14 13:21:55;;;;;;;7.25;2.40;;;;;;;;;;4906801;29;20288;-78
2024/02/14 13:24:23;;;;;;;10.13;2.50;;;;;;;;;;4896943;29;20274;-79
2024/02/14 13:26:50;;;;;;;8.27;2.20;;;;;;;;;;4896989;29;20209;-78
2024/02/14 13:29:18;;;;;;;8.07;2.55;;;;;;;;;;4895853;29;20241;-78
2024/02/14 13:31:45;;;;;;;9.68;2.25;;;;;;;;;;4898220;29;20586;-78
2024/02/14 13:34:15;;;;;;;11.77;2.20;;;;;;;;;;4898711;29;20205;-77
2024/02/14 13:36:42;;;;;;;8.55;1.95;;;;;;;;;;4899822;29;20244;-79
2024/02/14 13:39:09;;;;;;;5.53;1.60;;;;;;;;;;4898460;29;20642;-79
2024/02/14 13:41:37;;;;;;;6.03;1.95;;;;;;;;;;4898868;29;20288;-78
2024/02/14 13:44:04;;;;;;;7.57;1.60;;;;;;;;;;4898331;29;20726;-78
2024/02/14 13:46:32;;;;;;;8.27;1.80;;;;;;;;;;4897731;29;20241;-77
2024/02/14 13:48:59;;;;;;;7.72;1.92;;;;;;;;;;4899121;29;20272;-77
2024/02/14 13:51:28;;;;;;;7.28;2.00;;;;;;;;;;4916991;29;20291;-77
2024/02/14 13:53:56;;;;;;;11.05;2.33;;;;;;;;;;4902662;29;20213;-78
2024/02/14 13:56:24;;;;;;;7.22;2.17;;;;;;;;;;4904988;29;20205;-77
2024/02/14 13:58:51;;;;;;;7.50;1.65;;;;;;;;;;4902600;29;20201;-78
2024/02/14 14:01:19;;;;;;;6.68;1.80;;;;;;;;;;4908391;29;20276;-78
2024/02/14 14:03:48;;;;;;;10.20;1.77;;;;;;;;;;4909558;29;20316;-78
2024/02/14 14:06:15;;;;;;;6.85;1.60;;;;;;;;;;4900879;29;20204;-77
2024/02/14 14:08:45;;;;;;;10.98;2.10;;;;;;;;;;4906774;29;20232;-77
2024/02/14 14:11:12;;;;;;;7.15;1.80;;;;;;;;;;4909349;29;20201;-78
2024/02/14 14:13:39;;;;;;;6.88;1.55;;;;;;;;;;4911352;29;20310;-78
2024/02/14 14:16:06;;;;;;;7.72;1.40;;;;;;;;;;4912210;29;20237;-78
2024/02/14 14:18:34;;;;;;;6.07;1.67;;;;;;;;;;4893365;29;20292;-78
2024/02/14 14:21:01;;;;;;;10.98;1.70;;;;;;;;;;4907178;29;20284;-78
2024/02/14 14:23:28;;;;;;;7.35;1.92;;;;;;;;;;4907394;29;20264;-78
2024/02/14 14:25:57;;;;;;;6.85;1.70;;;;;;;;;;4908895;29;20266;-77
2024/02/14 14:28:25;;;;;;;4.88;1.33;;;;;;;;;;4906969;29;20254;-77
2024/02/14 14:30:53;;;;;;;8.32;1.70;;;;;;;;;;4913792;29;20295;-77
2024/02/14 14:33:21;;;;;;;8.07;1.58;;;;;;;;;;4915926;29;20213;-78
2024/02/14 14:35:49;;;;;;;6.68;1.77;;;;;;;;;;4915490;29;20235;-78
2024/02/14 14:38:16;;;;;;;9.38;1.75;;;;;;;;;;4912774;29;20243;-78